Time;durP1;ratioP1;P1;durP2;ratioP2;P2;SDS_P1;SDS_P2;PMS_P1;PMS_P2;Temp;Humidity;BMP_temperature;BMP_pressure;BME280_temperature;BME280_humidity;BME280_pressure;Samples;Min_cycle;Max_cycle;Signal;HPM_P1;HPM_P2
2021/12/09 00:02:13;;;;;;;4.20;1.50;;;;;;;;;;5036579;28;20052;-70
2021/12/09 00:04:41;;;;;;;2.38;1.25;;;;;;;;;;5036321;28;20033;-71
2021/12/09 00:07:06;;;;;;;3.13;1.52;;;;;;;;;;5036478;28;20080;-75
2021/12/09 00:09:32;;;;;;;3.10;1.30;;;;;;;;;;5036201;28;20025;-74
2021/12/09 00:11:59;;;;;;;2.47;1.38;;;;;;;;;;5036146;28;20108;-75
2021/12/09 00:14:30;;;;;;;3.83;1.90;;;;;;;;;;5035715;28;20159;-74
2021/12/09 00:16:59;;;;;;;3.03;1.50;;;;;;;;;;5036190;28;20029;-74
2021/12/09 00:19:26;;;;;;;2.97;1.17;;;;;;;;;;5036027;28;20068;-73
2021/12/09 00:21:51;;;;;;;1.92;1.02;;;;;;;;;;5036260;28;20033;-72
2021/12/09 00:24:18;;;;;;;2.13;1.02;;;;;;;;;;5035656;28;20033;-74
2021/12/09 00:26:46;;;;;;;2.50;1.10;;;;;;;;;;5035872;28;20033;-73
2021/12/09 00:29:15;;;;;;;1.30;0.80;;;;;;;;;;5035016;28;20057;-75
2021/12/09 00:31:41;;;;;;;1.45;0.82;;;;;;;;;;5028700;28;20057;-71
2021/12/09 00:34:07;;;;;;;1.85;1.08;;;;;;;;;;5035867;28;20115;-73
2021/12/09 00:36:54;;;;;;;1.63;1.00;;;;;;;;;;5035583;28;20032;-71
2021/12/09 00:39:21;;;;;;;2.60;1.10;;;;;;;;;;5035860;28;20083;-75
2021/12/09 00:41:46;;;;;;;2.83;1.33;;;;;;;;;;5035883;28;20052;-74
2021/12/09 00:44:12;;;;;;;3.38;1.48;;;;;;;;;;5035760;28;20488;-71
2021/12/09 00:46:38;;;;;;;3.03;1.30;;;;;;;;;;5035266;28;20043;-71
2021/12/09 00:49:05;;;;;;;4.00;1.40;;;;;;;;;;5035872;28;20033;-72
2021/12/09 00:51:30;;;;;;;3.53;1.58;;;;;;;;;;5035596;28;20068;-74
2021/12/09 00:53:56;;;;;;;4.35;1.50;;;;;;;;;;5035468;28;20065;-72
2021/12/09 00:56:22;;;;;;;3.83;1.67;;;;;;;;;;5035148;28;20038;-74
2021/12/09 00:58:49;;;;;;;5.45;1.80;;;;;;;;;;5035426;28;20065;-74
2021/12/09 01:01:15;;;;;;;4.07;1.60;;;;;;;;;;5035207;28;20033;-75
2021/12/09 01:03:42;;;;;;;4.15;2.00;;;;;;;;;;5035361;28;20037;-73
2021/12/09 01:06:10;;;;;;;6.10;1.52;;;;;;;;;;5035073;28;20466;-75
2021/12/09 01:08:36;;;;;;;3.63;1.58;;;;;;;;;;5035069;28;20485;-70
2021/12/09 01:11:03;;;;;;;4.68;1.90;;;;;;;;;;5035181;28;20071;-73
2021/12/09 01:13:29;;;;;;;4.25;1.90;;;;;;;;;;5034839;28;20068;-75
2021/12/09 01:15:55;;;;;;;2.83;1.60;;;;;;;;;;5034842;28;20033;-74
2021/12/09 01:18:21;;;;;;;3.13;1.90;;;;;;;;;;5034867;28;20021;-71
2021/12/09 01:20:46;;;;;;;3.95;1.95;;;;;;;;;;5035050;28;20037;-74
2021/12/09 01:23:12;;;;;;;3.65;1.80;;;;;;;;;;5034992;28;20029;-75
2021/12/09 01:25:38;;;;;;;4.93;1.90;;;;;;;;;;5034433;28;20466;-71
2021/12/09 01:28:14;;;;;;;3.08;1.67;;;;;;;;;;5034981;28;20048;-70
2021/12/09 01:30:40;;;;;;;4.85;1.95;;;;;;;;;;5027225;28;20427;-75
2021/12/09 01:33:06;;;;;;;4.82;1.70;;;;;;;;;;5034830;28;20087;-74
2021/12/09 01:35:34;;;;;;;3.50;1.75;;;;;;;;;;5033784;28;20375;-73
2021/12/09 01:38:09;;;;;;;4.38;1.90;;;;;;;;;;5034625;28;20065;-74
2021/12/09 01:40:35;;;;;;;4.45;1.80;;;;;;;;;;5034360;28;20044;-74
2021/12/09 01:43:01;;;;;;;4.97;1.80;;;;;;;;;;5034756;28;20091;-73
2021/12/09 01:45:27;;;;;;;7.82;1.85;;;;;;;;;;5034234;28;20037;-73
2021/12/09 01:47:54;;;;;;;5.47;2.03;;;;;;;;;;5034683;28;20033;-73
2021/12/09 01:50:21;;;;;;;3.30;1.63;;;;;;;;;;5034518;28;20139;-71
2021/12/09 01:52:47;;;;;;;3.35;1.63;;;;;;;;;;5034498;28;20083;-75
2021/12/09 01:55:15;;;;;;;5.47;2.13;;;;;;;;;;5034180;28;20041;-75
2021/12/09 01:57:45;;;;;;;4.35;1.63;;;;;;;;;;5033941;28;20041;-72
2021/12/09 02:00:18;;;;;;;3.45;1.60;;;;;;;;;;5034551;28;20112;-73
2021/12/09 02:02:44;;;;;;;4.13;1.88;;;;;;;;;;5034179;28;20033;-74
2021/12/09 02:05:12;;;;;;;2.63;1.45;;;;;;;;;;5033886;28;20032;-72
2021/12/09 02:07:39;;;;;;;3.47;1.63;;;;;;;;;;5034077;28;20440;-75
2021/12/09 02:10:10;;;;;;;3.85;1.75;;;;;;;;;;5034235;28;20108;-74
2021/12/09 02:12:36;;;;;;;4.47;1.90;;;;;;;;;;5033981;28;20459;-72
2021/12/09 02:15:03;;;;;;;3.50;1.80;;;;;;;;;;5033636;28;20051;-72
2021/12/09 02:17:31;;;;;;;3.70;1.52;;;;;;;;;;5033965;28;20382;-75
2021/12/09 02:19:58;;;;;;;4.38;1.95;;;;;;;;;;5034065;28;20482;-71
2021/12/09 02:22:26;;;;;;;4.78;1.80;;;;;;;;;;5033743;28;20029;-75
2021/12/09 02:24:54;;;;;;;3.53;1.90;;;;;;;;;;5033944;28;20116;-73
2021/12/09 02:27:20;;;;;;;4.78;2.00;;;;;;;;;;5049067;28;20351;-72
2021/12/09 02:29:45;;;;;;;4.63;1.90;;;;;;;;;;5033634;28;20423;-74
2021/12/09 02:32:11;;;;;;;4.28;1.90;;;;;;;;;;5033658;28;20071;-73
2021/12/09 02:34:36;;;;;;;4.50;1.98;;;;;;;;;;5033667;28;20056;-74
2021/12/09 02:37:03;;;;;;;4.10;2.22;;;;;;;;;;5033446;28;20083;-74
2021/12/09 02:39:29;;;;;;;3.60;2.05;;;;;;;;;;5033300;28;20048;-76
2021/12/09 02:41:56;;;;;;;5.00;2.25;;;;;;;;;;5033635;28;20041;-74
2021/12/09 02:44:22;;;;;;;4.70;2.40;;;;;;;;;;5033934;28;20037;-72
2021/12/09 02:46:51;;;;;;;5.55;2.58;;;;;;;;;;5032791;28;20470;-72
2021/12/09 02:49:20;;;;;;;5.50;2.53;;;;;;;;;;5033149;28;20467;-74
2021/12/09 02:51:48;;;;;;;5.50;2.33;;;;;;;;;;5033323;28;20033;-72
2021/12/09 02:54:16;;;;;;;9.23;2.75;;;;;;;;;;5032535;28;20095;-72
2021/12/09 02:56:44;;;;;;;5.03;2.50;;;;;;;;;;5033031;28;20061;-74
2021/12/09 02:59:10;;;;;;;4.65;2.70;;;;;;;;;;5033355;28;20060;-74
2021/12/09 03:01:57;;;;;;;6.53;2.78;;;;;;;;;;5033290;28;20068;-75
2021/12/09 03:04:41;;;;;;;6.65;2.75;;;;;;;;;;5033367;28;20045;-74
2021/12/09 03:07:27;;;;;;;6.55;2.55;;;;;;;;;;5033128;28;20382;-75
2021/12/09 03:09:59;;;;;;;6.60;2.42;;;;;;;;;;5032363;28;20064;-74
2021/12/09 03:12:28;;;;;;;5.65;2.22;;;;;;;;;;5033246;28;20037;-73
2021/12/09 03:14:54;;;;;;;5.90;2.40;;;;;;;;;;5033158;28;20130;-72
2021/12/09 03:17:20;;;;;;;5.90;2.33;;;;;;;;;;5032947;28;20459;-71
2021/12/09 03:19:48;;;;;;;4.50;2.35;;;;;;;;;;5033067;28;20128;-72
2021/12/09 03:22:14;;;;;;;5.43;2.42;;;;;;;;;;5033172;28;20026;-72
2021/12/09 03:24:40;;;;;;;5.03;2.50;;;;;;;;;;5033141;28;20095;-72
2021/12/09 03:27:06;;;;;;;6.03;2.47;;;;;;;;;;5032970;28;20413;-75
2021/12/09 03:29:32;;;;;;;5.28;2.58;;;;;;;;;;5032620;28;20446;-75
2021/12/09 03:32:02;;;;;;;4.55;2.22;;;;;;;;;;5033135;28;20106;-73
2021/12/09 03:34:30;;;;;;;5.22;2.55;;;;;;;;;;5032934;28;20098;-74
2021/12/09 03:36:58;;;;;;;4.97;2.40;;;;;;;;;;5032822;28;20421;-73
2021/12/09 03:39:28;;;;;;;5.53;2.30;;;;;;;;;;5033142;28;20489;-74
2021/12/09 03:41:55;;;;;;;6.90;2.55;;;;;;;;;;5033373;28;20414;-72
2021/12/09 03:44:22;;;;;;;4.50;2.50;;;;;;;;;;5032980;28;20056;-72
2021/12/09 03:46:51;;;;;;;5.60;2.20;;;;;;;;;;5032653;28;20052;-72
2021/12/09 03:49:17;;;;;;;6.68;2.40;;;;;;;;;;5033091;28;20079;-73
2021/12/09 03:51:42;;;;;;;4.60;2.50;;;;;;;;;;5032782;28;20029;-73
2021/12/09 03:54:10;;;;;;;6.28;2.45;;;;;;;;;;5032877;28;20040;-75
2021/12/09 03:56:37;;;;;;;4.90;2.35;;;;;;;;;;5032544;28;20120;-71
2021/12/09 03:59:05;;;;;;;6.82;2.45;;;;;;;;;;5034017;28;20040;-71
2021/12/09 04:01:31;;;;;;;4.45;2.50;;;;;;;;;;5036378;28;20044;-71
2021/12/09 04:03:57;;;;;;;4.22;2.30;;;;;;;;;;5036700;28;20052;-71
2021/12/09 04:06:23;;;;;;;6.78;2.63;;;;;;;;;;5036268;28;20033;-72
2021/12/09 04:08:49;;;;;;;5.22;2.40;;;;;;;;;;5036226;28;20034;-74
2021/12/09 04:11:17;;;;;;;5.13;2.30;;;;;;;;;;5035758;28;20061;-73
2021/12/09 04:13:43;;;;;;;5.68;2.30;;;;;;;;;;5035934;28;20049;-71
2021/12/09 04:16:10;;;;;;;10.00;2.47;;;;;;;;;;5035895;28;20091;-75
2021/12/09 04:18:38;;;;;;;5.47;2.50;;;;;;;;;;5036002;28;20030;-73
2021/12/09 04:21:04;;;;;;;6.57;2.83;;;;;;;;;;5036265;28;20053;-75
2021/12/09 04:23:30;;;;;;;5.70;2.50;;;;;;;;;;5036114;28;20068;-73
2021/12/09 04:25:56;;;;;;;6.60;2.63;;;;;;;;;;5035912;28;20095;-74
2021/12/09 04:28:22;;;;;;;4.72;2.58;;;;;;;;;;5036015;28;20446;-71
2021/12/09 04:30:48;;;;;;;6.82;2.47;;;;;;;;;;5034829;28;20037;-73
2021/12/09 04:33:14;;;;;;;5.57;2.70;;;;;;;;;;5035993;28;20033;-71
2021/12/09 04:35:40;;;;;;;3.83;2.17;;;;;;;;;;5035768;28;20063;-72
2021/12/09 04:38:05;;;;;;;4.10;2.40;;;;;;;;;;5035447;28;20029;-74
2021/12/09 04:40:31;;;;;;;5.80;2.58;;;;;;;;;;5035751;28;20374;-75
2021/12/09 04:42:56;;;;;;;6.00;2.40;;;;;;;;;;5035793;28;20037;-74
2021/12/09 04:45:23;;;;;;;5.32;2.15;;;;;;;;;;5035759;28;20029;-73
2021/12/09 04:47:49;;;;;;;3.67;2.25;;;;;;;;;;5035642;28;20080;-75
2021/12/09 04:50:15;;;;;;;3.83;2.30;;;;;;;;;;5035581;28;20411;-75
2021/12/09 04:52:40;;;;;;;4.38;2.20;;;;;;;;;;5035372;28;20464;-73
2021/12/09 04:55:08;;;;;;;5.88;2.47;;;;;;;;;;5035572;28;20040;-72
2021/12/09 04:57:34;;;;;;;4.57;2.05;;;;;;;;;;5035210;28;20076;-73
2021/12/09 05:00:00;;;;;;;5.88;2.17;;;;;;;;;;5035726;28;20142;-72
2021/12/09 05:03:11;;;;;;;4.38;2.17;;;;;;;;;;5035176;28;20454;-72
2021/12/09 05:05:15;;;;;;;6.25;2.33;;;;;;;;;;5027248;28;20045;-73
2021/12/09 05:07:42;;;;;;;7.07;2.55;;;;;;;;;;5034979;28;20030;-74
2021/12/09 05:10:08;;;;;;;8.65;2.78;;;;;;;;;;5034718;28;20041;-71
2021/12/09 05:12:34;;;;;;;3.90;2.40;;;;;;;;;;5034934;28;20047;-73
2021/12/09 05:15:00;;;;;;;5.45;2.42;;;;;;;;;;5034984;28;20061;-72
2021/12/09 05:17:26;;;;;;;5.18;2.47;;;;;;;;;;5034690;28;20044;-74
2021/12/09 05:19:52;;;;;;;6.78;2.60;;;;;;;;;;5035118;28;20030;-75
2021/12/09 05:22:17;;;;;;;5.63;2.50;;;;;;;;;;5035088;28;20122;-74
2021/12/09 05:24:46;;;;;;;5.20;2.67;;;;;;;;;;5034851;28;20287;-75
2021/12/09 05:27:14;;;;;;;5.63;2.30;;;;;;;;;;5034754;28;20108;-73
2021/12/09 05:29:41;;;;;;;5.25;2.78;;;;;;;;;;5033396;28;20040;-75
2021/12/09 05:32:08;;;;;;;5.38;2.80;;;;;;;;;;5035014;28;20112;-76
2021/12/09 05:34:45;;;;;;;5.35;2.92;;;;;;;;;;5034811;28;20044;-73
2021/12/09 05:37:14;;;;;;;5.50;2.40;;;;;;;;;;5034356;28;20036;-75
2021/12/09 05:39:40;;;;;;;6.03;2.72;;;;;;;;;;5034698;28;20120;-72
2021/12/09 05:42:07;;;;;;;5.97;2.72;;;;;;;;;;5034502;28;20029;-71
2021/12/09 05:44:33;;;;;;;6.28;3.00;;;;;;;;;;5034569;28;20033;-76
2021/12/09 05:46:59;;;;;;;5.40;2.60;;;;;;;;;;5034409;28;20065;-74
2021/12/09 05:49:25;;;;;;;4.30;2.42;;;;;;;;;;5034497;28;20060;-71
2021/12/09 05:51:51;;;;;;;7.53;2.65;;;;;;;;;;5034373;28;20108;-74
2021/12/09 05:54:17;;;;;;;5.85;2.60;;;;;;;;;;5034378;28;20035;-72
2021/12/09 05:56:43;;;;;;;7.45;2.40;;;;;;;;;;5034357;28;20159;-73
2021/12/09 05:59:10;;;;;;;4.75;2.45;;;;;;;;;;5034295;28;20029;-72
2021/12/09 06:01:38;;;;;;;6.22;2.45;;;;;;;;;;5034130;28;20108;-75
2021/12/09 06:04:05;;;;;;;5.55;2.40;;;;;;;;;;5034402;28;20063;-73
2021/12/09 06:06:32;;;;;;;7.20;2.30;;;;;;;;;;5033887;28;20033;-75
2021/12/09 06:08:58;;;;;;;4.38;2.20;;;;;;;;;;5034130;28;20030;-74
2021/12/09 06:11:24;;;;;;;11.05;2.85;;;;;;;;;;5033947;28;20033;-72
2021/12/09 06:13:50;;;;;;;4.18;2.13;;;;;;;;;;5033954;28;20080;-74
2021/12/09 06:16:16;;;;;;;6.78;2.30;;;;;;;;;;5034037;28;20030;-74
2021/12/09 06:18:42;;;;;;;3.97;2.15;;;;;;;;;;5033511;28;20029;-71
2021/12/09 06:21:08;;;;;;;4.93;1.95;;;;;;;;;;5033921;28;20543;-73
2021/12/09 06:23:34;;;;;;;4.00;2.40;;;;;;;;;;5033767;28;20045;-73
2021/12/09 06:26:00;;;;;;;4.60;2.25;;;;;;;;;;5033854;28;20036;-74
2021/12/09 06:28:26;;;;;;;7.75;3.33;;;;;;;;;;5033506;28;20087;-71
2021/12/09 06:30:52;;;;;;;11.18;3.95;;;;;;;;;;5031926;28;20108;-71
2021/12/09 06:33:18;;;;;;;6.47;2.60;;;;;;;;;;5033878;28;20067;-71
2021/12/09 06:35:44;;;;;;;10.27;3.50;;;;;;;;;;5033488;28;20052;-72
2021/12/09 06:38:14;;;;;;;7.47;3.30;;;;;;;;;;5033364;28;20124;-72
2021/12/09 06:40:40;;;;;;;;;;;;;;;;;;5034115;28;20037;-72
2021/12/09 06:43:06;;;;;;;4.07;2.10;;;;;;;;;;5033563;28;20356;-71
2021/12/09 06:45:32;;;;;;;5.70;2.15;;;;;;;;;;5032573;28;20044;-73
2021/12/09 06:47:58;;;;;;;4.95;2.35;;;;;;;;;;5033172;28;20033;-74
2021/12/09 06:50:24;;;;;;;7.93;2.40;;;;;;;;;;5032426;28;20048;-72
2021/12/09 06:52:51;;;;;;;7.57;2.63;;;;;;;;;;5033343;28;20037;-73
2021/12/09 06:55:18;;;;;;;6.43;2.80;;;;;;;;;;5033424;28;20056;-70
2021/12/09 06:57:44;;;;;;;5.32;2.45;;;;;;;;;;5032945;28;20079;-72
2021/12/09 07:00:20;;;;;;;7.97;2.40;;;;;;;;;;5033658;28;20108;-72
2021/12/09 07:02:47;;;;;;;13.23;3.50;;;;;;;;;;5033226;28;20044;-72
2021/12/09 07:05:14;;;;;;;5.65;2.20;;;;;;;;;;5033348;28;20574;-71
2021/12/09 07:07:41;;;;;;;7.57;2.47;;;;;;;;;;5032142;28;20471;-75
2021/12/09 07:10:08;;;;;;;5.20;2.17;;;;;;;;;;5033514;28;20030;-73
2021/12/09 07:12:35;;;;;;;4.78;2.65;;;;;;;;;;5033377;28;20033;-74
2021/12/09 07:15:03;;;;;;;9.65;2.55;;;;;;;;;;5032909;28;20049;-74
2021/12/09 07:17:28;;;;;;;8.13;2.67;;;;;;;;;;5032914;28;20037;-73
2021/12/09 07:19:54;;;;;;;5.22;2.20;;;;;;;;;;5033039;28;20103;-72
2021/12/09 07:22:20;;;;;;;6.53;2.45;;;;;;;;;;5032296;28;20033;-74
2021/12/09 07:24:45;;;;;;;6.65;2.45;;;;;;;;;;5032973;28;20040;-71
2021/12/09 07:27:11;;;;;;;8.88;2.65;;;;;;;;;;5031956;28;20044;-74
2021/12/09 07:29:37;;;;;;;9.02;2.90;;;;;;;;;;5031354;28;20029;-71
2021/12/09 07:32:03;;;;;;;11.75;3.03;;;;;;;;;;5032667;28;20033;-72
2021/12/09 07:34:29;;;;;;;6.45;2.90;;;;;;;;;;5035073;28;20033;-74
2021/12/09 07:36:56;;;;;;;8.35;2.60;;;;;;;;;;5036688;28;20039;-72
2021/12/09 07:39:22;;;;;;;7.57;2.58;;;;;;;;;;5037147;28;20476;-71
2021/12/09 07:41:48;;;;;;;5.22;2.55;;;;;;;;;;5037050;28;20450;-71
2021/12/09 07:44:17;;;;;;;6.85;2.50;;;;;;;;;;5036887;28;20381;-73
2021/12/09 07:46:45;;;;;;;7.28;2.70;;;;;;;;;;5036742;28;20051;-74
2021/12/09 07:49:11;;;;;;;7.00;2.70;;;;;;;;;;5036445;28;20029;-75
2021/12/09 07:51:37;;;;;;;8.15;3.22;;;;;;;;;;5036780;28;20032;-70
2021/12/09 07:54:03;;;;;;;7.07;3.20;;;;;;;;;;5036585;28;20045;-74
2021/12/09 07:56:28;;;;;;;7.30;3.28;;;;;;;;;;5036654;28;20486;-73
2021/12/09 07:58:54;;;;;;;10.52;3.67;;;;;;;;;;5036261;28;20079;-71
2021/12/09 08:01:20;;;;;;;8.48;3.50;;;;;;;;;;5036582;28;20083;-74
2021/12/09 08:03:47;;;;;;;5.57;3.25;;;;;;;;;;5036284;28;20103;-76
2021/12/09 08:06:14;;;;;;;7.47;3.30;;;;;;;;;;5036666;28;20037;-72
2021/12/09 08:08:40;;;;;;;6.22;3.00;;;;;;;;;;5036156;28;20049;-72
2021/12/09 08:11:07;;;;;;;9.68;3.60;;;;;;;;;;5036214;28;20478;-74
2021/12/09 08:13:33;;;;;;;8.45;3.28;;;;;;;;;;5036051;28;20123;-75
2021/12/09 08:16:00;;;;;;;8.10;3.35;;;;;;;;;;5036216;28;20488;-73
2021/12/09 08:18:27;;;;;;;8.30;3.80;;;;;;;;;;5034898;28;20029;-72
2021/12/09 08:20:57;;;;;;;9.00;4.13;;;;;;;;;;5036084;28;20128;-75
2021/12/09 08:23:24;;;;;;;8.55;4.07;;;;;;;;;;5036088;28;20040;-71
2021/12/09 08:25:49;;;;;;;8.63;4.05;;;;;;;;;;5036148;28;20037;-70
2021/12/09 08:28:16;;;;;;;10.10;4.32;;;;;;;;;;5035953;28;20026;-74
2021/12/09 08:30:42;;;;;;;7.47;3.72;;;;;;;;;;5033120;28;20038;-73
2021/12/09 08:33:09;;;;;;;7.68;3.45;;;;;;;;;;5035989;28;20025;-75
2021/12/09 08:35:36;;;;;;;8.90;3.88;;;;;;;;;;5035817;28;20172;-72
2021/12/09 08:38:04;;;;;;;9.82;3.72;;;;;;;;;;5034446;28;20529;-72
2021/12/09 08:40:30;;;;;;;12.55;5.70;;;;;;;;;;5035809;28;20033;-74
2021/12/09 08:42:56;;;;;;;8.75;3.50;;;;;;;;;;5035642;28;20108;-76
2021/12/09 08:45:22;;;;;;;9.27;3.85;;;;;;;;;;5035609;28;20535;-73
2021/12/09 08:47:49;;;;;;;8.05;3.60;;;;;;;;;;5034460;28;20025;-74
2021/12/09 08:50:20;;;;;;;7.30;3.70;;;;;;;;;;5035562;28;20033;-75
2021/12/09 08:52:48;;;;;;;9.05;3.65;;;;;;;;;;5035475;28;20033;-74
2021/12/09 08:55:15;;;;;;;9.10;3.78;;;;;;;;;;5035558;28;20121;-72
2021/12/09 08:57:41;;;;;;;7.53;3.30;;;;;;;;;;5035113;28;20072;-72
2021/12/09 09:00:10;;;;;;;6.05;3.00;;;;;;;;;;5034323;28;20056;-74
2021/12/09 09:02:38;;;;;;;6.95;3.25;;;;;;;;;;5035398;28;20048;-74
2021/12/09 09:05:07;;;;;;;10.30;3.95;;;;;;;;;;5035150;28;20067;-73
2021/12/09 09:07:32;;;;;;;7.88;3.50;;;;;;;;;;5034852;28;20095;-73
2021/12/09 09:09:58;;;;;;;9.73;3.40;;;;;;;;;;5035239;28;20037;-71
2021/12/09 09:12:23;;;;;;;10.77;3.50;;;;;;;;;;5035246;28;20037;-71
2021/12/09 09:14:49;;;;;;;12.93;3.75;;;;;;;;;;5035245;28;20076;-74
2021/12/09 09:17:15;;;;;;;8.38;3.15;;;;;;;;;;5035152;28;20447;-72
2021/12/09 09:19:40;;;;;;;8.60;3.40;;;;;;;;;;5034831;28;20040;-72
2021/12/09 09:22:06;;;;;;;8.23;3.40;;;;;;;;;;5035075;28;20037;-74
2021/12/09 09:24:32;;;;;;;7.38;3.15;;;;;;;;;;5035079;28;20454;-73
2021/12/09 09:26:58;;;;;;;6.15;3.17;;;;;;;;;;5034836;28;20029;-72
2021/12/09 09:29:25;;;;;;;8.48;3.17;;;;;;;;;;5034458;28;20359;-74
2021/12/09 09:31:52;;;;;;;11.43;3.78;;;;;;;;;;5034756;28;20041;-73
2021/12/09 09:34:18;;;;;;;8.43;3.90;;;;;;;;;;5034991;28;20517;-75
2021/12/09 09:36:44;;;;;;;11.43;3.95;;;;;;;;;;5034697;28;20052;-76
2021/12/09 09:39:18;;;;;;;11.23;4.70;;;;;;;;;;5034364;28;20060;-71
2021/12/09 09:41:47;;;;;;;7.97;3.95;;;;;;;;;;5034785;28;20095;-74
2021/12/09 09:44:16;;;;;;;13.83;4.53;;;;;;;;;;5034455;28;20045;-72
2021/12/09 09:46:43;;;;;;;11.30;4.45;;;;;;;;;;5034519;28;20033;-73
2021/12/09 09:49:10;;;;;;;11.68;4.60;;;;;;;;;;5034290;28;20032;-72
2021/12/09 09:51:38;;;;;;;15.32;5.47;;;;;;;;;;5034408;28;20044;-74
2021/12/09 09:54:05;;;;;;;8.65;4.55;;;;;;;;;;5034142;28;20445;-75
2021/12/09 09:56:33;;;;;;;11.05;4.63;;;;;;;;;;5033872;28;20036;-74
2021/12/09 09:59:03;;;;;;;8.45;4.07;;;;;;;;;;5033986;28;20033;-72
2021/12/09 10:01:32;;;;;;;10.25;4.07;;;;;;;;;;5034259;28;20037;-74
2021/12/09 10:04:09;;;;;;;7.95;4.05;;;;;;;;;;5034111;28;20025;-71
2021/12/09 10:06:36;;;;;;;9.48;3.97;;;;;;;;;;5034381;28;20485;-70
2021/12/09 10:09:05;;;;;;;11.20;4.13;;;;;;;;;;5032905;28;20451;-74
2021/12/09 10:11:30;;;;;;;10.55;3.42;;;;;;;;;;5034005;28;20068;-71
2021/12/09 10:14:11;;;;;;;6.50;3.50;;;;;;;;;;5033837;28;20096;-75
2021/12/09 10:16:38;;;;;;;7.63;3.42;;;;;;;;;;5033965;28;20076;-74
2021/12/09 10:19:15;;;;;;;15.88;3.80;;;;;;;;;;5033543;28;20067;-72
2021/12/09 10:21:41;;;;;;;7.18;3.30;;;;;;;;;;5033804;28;20183;-71
2021/12/09 10:24:08;;;;;;;5.20;2.50;;;;;;;;;;5033873;28;20021;-72
2021/12/09 10:26:50;;;;;;;5.63;2.42;;;;;;;;;;5033806;28;20525;-74
2021/12/09 10:29:21;;;;;;;7.68;2.75;;;;;;;;;;5033674;28;20344;-73
2021/12/09 10:31:55;;;;;;;9.15;2.30;;;;;;;;;;5033972;28;20040;-73
2021/12/09 10:34:34;;;;;;;4.75;2.40;;;;;;;;;;5033962;28;20123;-72
2021/12/09 10:37:06;;;;;;;5.05;2.40;;;;;;;;;;5033624;28;20033;-71
2021/12/09 10:39:48;;;;;;;4.63;2.30;;;;;;;;;;5033512;28;20048;-73
2021/12/09 10:42:25;;;;;;;4.70;2.13;;;;;;;;;;5032612;28;20470;-74
2021/12/09 10:44:56;;;;;;;4.50;1.92;;;;;;;;;;5033636;28;20052;-73
2021/12/09 10:55:53;;;;;;;5.28;1.98;;;;;;;;;;5033714;28;20066;-73
2021/12/09 10:58:27;;;;;;;4.32;1.73;;;;;;;;;;5033179;28;20104;-71
2021/12/09 11:01:08;;;;;;;4.25;1.70;;;;;;;;;;5033451;28;20463;-73
2021/12/09 11:03:45;;;;;;;6.95;1.70;;;;;;;;;;5033413;28;20109;-72
2021/12/09 11:06:15;;;;;;;8.38;1.73;;;;;;;;;;5033279;28;20496;-72
2021/12/09 11:08:45;;;;;;;7.10;1.98;;;;;;;;;;5033562;28;20037;-72
2021/12/09 11:11:29;;;;;;;5.85;1.58;;;;;;;;;;5037447;28;20025;-71
2021/12/09 11:13:59;;;;;;;3.35;1.42;;;;;;;;;;5037203;28;20053;-73
2021/12/09 11:16:30;;;;;;;4.53;1.40;;;;;;;;;;5037325;28;20541;-73
2021/12/09 11:19:17;;;;;;;3.50;1.20;;;;;;;;;;5036867;28;20369;-74
2021/12/09 11:21:55;;;;;;;6.05;1.50;;;;;;;;;;5037074;28;20029;-73
2021/12/09 11:24:22;;;;;;;3.70;1.35;;;;;;;;;;5037282;28;20088;-72
2021/12/09 11:27:02;;;;;;;3.25;1.40;;;;;;;;;;5037450;28;20051;-73
2021/12/09 11:29:50;;;;;;;6.07;1.83;;;;;;;;;;5035412;28;20116;-72
2021/12/09 11:35:15;;;;;;;4.05;1.90;;;;;;;;;;5036936;28;20068;-72
2021/12/09 11:40:30;;;;;;;8.45;2.78;;;;;;;;;;5036648;28;20030;-71
2021/12/09 11:43:00;;;;;;;4.95;2.35;;;;;;;;;;5036843;28;20056;-72
2021/12/09 11:45:41;;;;;;;8.47;2.23;;;;;;;;;;5036968;28;20033;-71
2021/12/09 11:48:09;;;;;;;5.28;2.17;;;;;;;;;;5036272;28;20044;-73
2021/12/09 11:50:38;;;;;;;8.63;2.05;;;;;;;;;;5036513;28;20043;-71
2021/12/09 11:53:07;;;;;;;5.35;2.00;;;;;;;;;;5036483;28;20036;-75
2021/12/09 11:55:38;;;;;;;4.18;2.25;;;;;;;;;;5036839;28;20084;-70
2021/12/09 11:58:12;;;;;;;5.35;1.90;;;;;;;;;;5036327;28;20425;-74
2021/12/09 12:12:55;;;;;;;4.32;1.63;;;;;;;;;;5036663;28;20087;-71
2021/12/09 12:15:26;;;;;;;3.53;1.50;;;;;;;;;;5035927;28;20471;-74
2021/12/09 12:29:51;;;;;;;5.32;1.20;;;;;;;;;;5035917;28;20067;-75
2021/12/09 12:35:17;;;;;;;4.75;1.10;;;;;;;;;;5036311;28;20045;-74
2021/12/09 12:38:11;;;;;;;2.75;0.95;;;;;;;;;;5035653;28;20034;-72
2021/12/09 12:40:56;;;;;;;4.32;1.00;;;;;;;;;;5035474;28;20029;-74
2021/12/09 12:43:59;;;;;;;1.92;0.95;;;;;;;;;;5035544;28;20034;-74
2021/12/09 12:49:22;;;;;;;3.78;1.10;;;;;;;;;;5035591;28;20083;-74
2021/12/09 12:51:55;;;;;;;3.65;0.95;;;;;;;;;;5035594;28;20454;-72
2021/12/09 12:54:51;;;;;;;3.72;0.95;;;;;;;;;;5035372;28;20469;-72
2021/12/09 12:57:34;;;;;;;1.70;0.63;;;;;;;;;;5034922;28;20049;-75
2021/12/09 13:00:08;;;;;;;2.42;0.90;;;;;;;;;;5034936;28;20577;-73
2021/12/09 13:13:29;;;;;;;3.30;0.80;;;;;;;;;;5035584;28;20519;-74
2021/12/09 13:16:22;;;;;;;2.92;0.90;;;;;;;;;;4996119;28;20038;-74
2021/12/09 13:19:09;;;;;;;1.83;0.90;;;;;;;;;;4995772;28;20033;-72
2021/12/09 13:21:42;;;;;;;1.73;0.80;;;;;;;;;;4995948;28;20053;-75
2021/12/09 13:24:36;;;;;;;1.73;0.80;;;;;;;;;;4995614;28;20041;-71
2021/12/09 13:27:50;;;;;;;3.95;0.82;;;;;;;;;;4995549;28;20506;-73
2021/12/09 13:30:27;;;;;;;1.92;0.88;;;;;;;;;;4991547;28;20034;-71
2021/12/09 13:47:17;;;;;;;2.35;1.15;;;;;;;;;;4995227;28;20100;-73
2021/12/09 13:50:02;;;;;;;4.75;1.15;;;;;;;;;;4995197;28;20050;-72
2021/12/09 13:55:20;;;;;;;2.17;1.10;;;;;;;;;;4995004;28;20073;-73
2021/12/09 13:57:49;;;;;;;2.42;0.90;;;;;;;;;;4995009;28;20125;-73
2021/12/09 14:00:27;;;;;;;4.07;1.00;;;;;;;;;;4994670;28;20022;-74
2021/12/09 14:02:55;;;;;;;2.35;0.90;;;;;;;;;;4995194;28;20034;-72
2021/12/09 14:05:23;;;;;;;2.45;1.00;;;;;;;;;;4994699;28;20101;-73
2021/12/09 14:07:57;;;;;;;5.15;1.10;;;;;;;;;;4994825;28;20034;-73
2021/12/09 14:10:28;;;;;;;3.58;0.93;;;;;;;;;;4994425;28;20043;-74
2021/12/09 14:13:02;;;;;;;2.72;1.00;;;;;;;;;;4994882;28;20026;-73
2021/12/09 14:18:30;;;;;;;9.07;1.20;;;;;;;;;;5034073;28;20056;-71
2021/12/09 14:21:11;;;;;;;5.60;1.10;;;;;;;;;;5134517;27;20180;-72
2021/12/09 14:23:37;;;;;;;1.85;0.80;;;;;;;;;;5134492;27;20028;-72
2021/12/09 14:26:04;;;;;;;2.22;1.00;;;;;;;;;;5135255;27;20028;-69
2021/12/09 14:28:33;;;;;;;2.55;1.00;;;;;;;;;;5134432;27;20028;-71
2021/12/09 14:30:59;;;;;;;3.78;1.10;;;;;;;;;;5134340;27;20023;-69
2021/12/09 14:33:25;;;;;;;2.95;0.70;;;;;;;;;;5135014;27;20479;-72
2021/12/09 14:36:04;;;;;;;2.35;0.77;;;;;;;;;;5134323;27;20023;-72
2021/12/09 14:38:31;;;;;;;1.55;0.90;;;;;;;;;;5133929;27;20023;-72
2021/12/09 14:41:02;;;;;;;4.03;0.75;;;;;;;;;;5133711;27;20023;-72
2021/12/09 14:43:28;;;;;;;2.08;0.88;;;;;;;;;;5134614;27;20035;-69
2021/12/09 14:46:09;;;;;;;1.63;0.82;;;;;;;;;;5134191;27;20395;-73
2021/12/09 14:48:37;;;;;;;3.40;1.02;;;;;;;;;;5127267;27;20027;-71
2021/12/09 14:51:14;;;;;;;3.53;0.80;;;;;;;;;;5134470;27;20071;-73
2021/12/09 14:53:47;;;;;;;1.58;0.80;;;;;;;;;;5127855;27;20100;-71
2021/12/09 14:56:42;;;;;;;2.83;1.00;;;;;;;;;;5135258;27;20038;-71
2021/12/09 14:59:31;;;;;;;3.75;0.90;;;;;;;;;;5132980;27;20035;-72
2021/12/09 15:02:18;;;;;;;2.60;0.90;;;;;;;;;;5130080;27;20027;-71
2021/12/09 15:04:48;;;;;;;1.98;0.82;;;;;;;;;;5128214;27;20027;-70
2021/12/09 15:08:04;;;;;;;2.43;1.53;;;;;;;;;;5134978;27;20027;-74
2021/12/09 15:10:13;;;;;;;3.40;1.55;;;;;;;;;;5129383;27;20076;-73
2021/12/09 15:12:40;;;;;;;2.97;1.50;;;;;;;;;;5133390;27;20398;-72
2021/12/09 15:15:16;;;;;;;5.05;1.70;;;;;;;;;;5134540;27;20091;-70
2021/12/09 15:17:54;;;;;;;2.20;1.20;;;;;;;;;;5127482;27;20031;-71
2021/12/09 15:20:20;;;;;;;2.72;0.90;;;;;;;;;;5134058;27;20066;-71
2021/12/09 15:23:09;;;;;;;2.75;1.10;;;;;;;;;;5133488;27;20070;-74
2021/12/09 15:25:38;;;;;;;3.47;0.95;;;;;;;;;;5133495;27;20024;-69
2021/12/09 15:28:13;;;;;;;2.53;1.10;;;;;;;;;;5133935;27;20038;-68
2021/12/09 15:30:59;;;;;;;2.40;0.73;;;;;;;;;;5118637;27;20077;-73
2021/12/09 15:33:42;;;;;;;2.08;0.90;;;;;;;;;;5118034;27;20027;-74
2021/12/09 15:36:17;;;;;;;2.80;1.00;;;;;;;;;;5120575;27;20027;-74
2021/12/09 15:38:55;;;;;;;3.40;1.10;;;;;;;;;;5113664;27;20077;-72
2021/12/09 15:41:24;;;;;;;3.50;1.25;;;;;;;;;;5120269;27;20058;-73
2021/12/09 15:43:55;;;;;;;4.75;1.33;;;;;;;;;;5119255;27;20035;-71
2021/12/09 15:46:21;;;;;;;3.20;1.35;;;;;;;;;;5120469;27;20046;-71
2021/12/09 15:48:48;;;;;;;4.07;1.67;;;;;;;;;;5119193;27;20115;-74
2021/12/09 15:51:21;;;;;;;3.15;1.50;;;;;;;;;;5120192;27;20032;-71
2021/12/09 15:53:51;;;;;;;2.25;1.27;;;;;;;;;;5118679;27;20547;-74
2021/12/09 15:56:49;;;;;;;4.70;1.40;;;;;;;;;;5120465;27;20039;-71
2021/12/09 15:59:18;;;;;;;5.03;1.10;;;;;;;;;;5119783;27;20046;-72
2021/12/09 16:01:46;;;;;;;6.88;1.58;;;;;;;;;;5118712;27;20035;-71
2021/12/09 16:04:13;;;;;;;3.88;1.50;;;;;;;;;;5120169;27;20456;-75
2021/12/09 16:06:43;;;;;;;6.78;2.63;;;;;;;;;;5118688;27;20468;-74
2021/12/09 16:09:13;;;;;;;5.63;3.30;;;;;;;;;;5119512;27;20445;-72
2021/12/09 16:11:38;;;;;;;7.45;3.47;;;;;;;;;;5111737;27;20495;-74
2021/12/09 16:14:04;;;;;;;11.30;3.92;;;;;;;;;;5118889;27;20114;-74